createdAt,value
2022-09-23T00:01:15.180Z,7.70
2022-09-23T00:03:45.520Z,7.75
2022-09-23T00:06:18.014Z,7.86
2022-09-23T00:08:45.366Z,7.80
2022-09-23T00:11:14.978Z,7.78
2022-09-23T00:13:43.725Z,7.77
2022-09-23T00:16:14.817Z,7.86
2022-09-23T00:18:42.253Z,7.77
2022-09-23T00:21:14.635Z,7.66
2022-09-23T00:23:42.926Z,7.86
2022-09-23T00:26:13.583Z,7.90
2022-09-23T00:28:40.747Z,7.80
2022-09-23T00:31:10.946Z,7.87
2022-09-23T00:33:38.099Z,7.90
2022-09-23T00:36:07.481Z,8.01
2022-09-23T00:38:34.590Z,7.70
2022-09-23T00:41:02.892Z,7.73
2022-09-23T00:43:46.245Z,7.74
2022-09-23T00:46:21.822Z,7.57
2022-09-23T00:48:54.570Z,7.55
2022-09-23T00:51:24.936Z,7.47
2022-09-23T00:53:52.798Z,7.43
2022-09-23T00:56:23.015Z,7.41
2022-09-23T00:58:51.033Z,7.33
2022-09-23T01:01:19.804Z,7.46
2022-09-23T01:03:47.386Z,7.36
2022-09-23T01:06:14.392Z,7.54
2022-09-23T01:08:44.399Z,7.50
2022-09-23T01:11:49.527Z,7.48
2022-09-23T01:14:35.576Z,7.51
2022-09-23T01:17:05.254Z,7.40
2022-09-23T01:19:59.548Z,7.37
2022-09-23T01:22:49.775Z,7.43
2022-09-23T01:25:31.955Z,7.26
2022-09-23T01:28:19.076Z,7.27
2022-09-23T01:31:17.688Z,7.55
2022-09-23T01:34:03.914Z,7.48
2022-09-23T01:36:40.245Z,7.46
2022-09-23T01:39:17.288Z,7.37
2022-09-23T01:42:09.611Z,7.30
2022-09-23T01:44:43.089Z,7.37
2022-09-23T01:47:27.807Z,7.30
2022-09-23T01:50:36.480Z,7.30
2022-09-23T01:53:10.901Z,7.19
2022-09-23T01:55:42.443Z,7.32
2022-09-23T01:58:35.661Z,7.29
2022-09-23T02:01:07.100Z,7.44
2022-09-23T02:03:42.203Z,7.18
2022-09-23T02:06:15.010Z,7.27
2022-09-23T02:08:47.277Z,7.32
2022-09-23T02:11:16.223Z,7.14
2022-09-23T02:13:48.811Z,7.26
2022-09-23T02:16:44.845Z,7.44
2022-09-23T02:19:27.239Z,7.40
2022-09-23T02:22:08.373Z,7.10
2022-09-23T02:24:38.731Z,7.28
2022-09-23T02:27:08.200Z,7.29
2022-09-23T02:29:54.024Z,7.08
2022-09-23T02:32:26.310Z,7.19
2022-09-23T02:35:18.154Z,7.08
2022-09-23T02:37:54.286Z,7.11
2022-09-23T02:40:46.882Z,6.98
2022-09-23T02:43:23.683Z,7.03
2022-09-23T02:45:50.548Z,7.00
2022-09-23T02:48:28.965Z,6.75
2022-09-23T02:50:55.756Z,6.68
2022-09-23T02:53:24.392Z,6.57
2022-09-23T02:55:51.217Z,6.63
2022-09-23T02:58:18.195Z,6.81
2022-09-23T03:01:33.849Z,6.75
2022-09-23T03:04:05.076Z,6.73
2022-09-23T03:06:48.139Z,6.68
2022-09-23T03:09:55.711Z,6.62
2022-09-23T03:12:52.905Z,6.56
2022-09-23T03:15:26.337Z,6.64
2022-09-23T03:18:14.823Z,6.63
2022-09-23T03:21:03.134Z,6.52
2022-09-23T03:23:37.142Z,6.82
2022-09-23T03:26:12.473Z,6.82
2022-09-23T03:28:43.687Z,6.56
2022-09-23T03:31:13.094Z,6.44
2022-09-23T03:33:46.967Z,6.46
2022-09-23T03:36:35.023Z,6.53
2022-09-23T03:39:07.045Z,6.50
2022-09-23T03:41:43.804Z,6.74
2022-09-23T03:44:11.972Z,6.82
2022-09-23T03:46:38.962Z,6.64
2022-09-23T03:49:15.767Z,6.48
2022-09-23T03:51:44.795Z,6.42
2022-09-23T03:54:11.813Z,6.49
2022-09-23T03:56:38.567Z,6.46
2022-09-23T03:59:05.497Z,6.63
2022-09-23T04:01:32.473Z,6.77
2022-09-23T04:04:00.102Z,6.74
2022-09-23T04:06:27.025Z,6.78
2022-09-23T04:08:54.044Z,6.92
2022-09-23T04:11:20.815Z,6.74
2022-09-23T04:13:47.716Z,6.67
2022-09-23T04:16:14.645Z,6.55
2022-09-23T04:18:44.751Z,6.70
2022-09-23T04:21:11.813Z,6.69
2022-09-23T04:23:38.587Z,6.63
2022-09-23T04:26:06.038Z,6.58
2022-09-23T04:28:33.007Z,6.78
2022-09-23T04:31:04.575Z,6.81
2022-09-23T04:33:31.828Z,6.70
2022-09-23T04:35:59.194Z,6.50
2022-09-23T04:38:26.618Z,6.39
2022-09-23T04:40:53.407Z,6.54
2022-09-23T04:43:22.893Z,6.54
2022-09-23T04:46:07.280Z,6.40
2022-09-23T04:48:36.659Z,6.70
2022-09-23T04:51:09.652Z,6.54
2022-09-23T04:53:39.376Z,6.62
2022-09-23T04:56:17.717Z,6.68
2022-09-23T04:58:46.100Z,6.64
2022-09-23T05:01:26.755Z,6.76
2022-09-23T05:04:02.393Z,6.94
2022-09-23T05:06:37.297Z,6.93
2022-09-23T05:09:07.216Z,6.77
2022-09-23T05:11:34.617Z,6.87
2022-09-23T05:14:01.826Z,6.87
2022-09-23T05:16:29.466Z,6.90
2022-09-23T05:18:56.292Z,6.87
2022-09-23T05:21:25.231Z,6.83
2022-09-23T05:23:55.353Z,6.87
2022-09-23T05:26:25.550Z,6.98
2022-09-23T05:28:53.906Z,6.95
2022-09-23T05:31:23.457Z,6.98
2022-09-23T05:33:57.379Z,7.00
2022-09-23T05:36:26.496Z,7.09
2022-09-23T05:38:54.662Z,7.14
2022-09-23T05:41:25.297Z,7.19
2022-09-23T05:43:53.853Z,7.27
2022-09-23T05:46:27.940Z,7.44
2022-09-23T05:49:01.138Z,7.56
2022-09-23T05:51:31.150Z,7.62
2022-09-23T05:53:59.752Z,7.65
2022-09-23T05:56:28.369Z,7.84
2022-09-23T05:58:57.403Z,7.86
2022-09-23T06:01:31.372Z,7.95
2022-09-23T06:03:58.487Z,7.94
2022-09-23T06:06:40.396Z,8.14
2022-09-23T06:09:11.366Z,8.23
2022-09-23T06:11:38.320Z,8.22
2022-09-23T06:14:05.796Z,8.43
2022-09-23T06:16:34.863Z,8.44
2022-09-23T06:19:06.159Z,8.43
2022-09-23T06:21:37.528Z,8.60
2022-09-23T06:24:07.026Z,8.66
2022-09-23T06:26:35.329Z,8.77
2022-09-23T06:29:03.432Z,8.91
2022-09-23T06:31:30.574Z,8.92
2022-09-23T06:34:12.527Z,9.03
2022-09-23T06:36:46.187Z,9.19
2022-09-23T06:39:15.206Z,9.24
2022-09-23T06:41:42.349Z,9.24
2022-09-23T06:44:09.133Z,9.36
2022-09-23T06:46:36.960Z,9.41
2022-09-23T06:49:03.999Z,9.47
2022-09-23T06:51:30.806Z,9.65
2022-09-23T06:53:57.534Z,9.66
2022-09-23T06:56:24.780Z,9.69
2022-09-23T06:58:52.691Z,9.87
2022-09-23T07:01:19.917Z,9.95
2022-09-23T07:03:48.495Z,10.08
2022-09-23T07:06:17.144Z,10.10
2022-09-23T07:08:47.066Z,10.23
2022-09-23T07:11:15.619Z,10.29
2022-09-23T07:13:42.884Z,10.37
2022-09-23T07:16:11.478Z,10.58
2022-09-23T07:18:39.142Z,10.70
2022-09-23T07:21:17.371Z,10.98
2022-09-23T07:23:46.599Z,11.16
2022-09-23T07:26:15.068Z,11.20
2022-09-23T07:28:41.915Z,11.28
2022-09-23T07:31:15.818Z,11.49
2022-09-23T07:33:44.272Z,11.69
2022-09-23T07:36:14.369Z,11.92
2022-09-23T07:38:45.145Z,12.05
2022-09-23T07:41:15.756Z,12.30
2022-09-23T07:43:45.263Z,12.46
2022-09-23T07:46:16.310Z,12.66
2022-09-23T07:48:44.516Z,12.77
2022-09-23T07:51:19.129Z,12.87
2022-09-23T07:53:51.238Z,13.11
2022-09-23T07:56:19.433Z,13.16
2022-09-23T07:58:59.977Z,13.34
2022-09-23T08:01:29.825Z,13.49
2022-09-23T08:03:58.592Z,13.67
2022-09-23T08:06:25.871Z,13.77
2022-09-23T08:08:53.608Z,14.09
2022-09-23T08:11:20.503Z,14.27
2022-09-23T08:13:47.779Z,14.56
2022-09-23T08:16:14.813Z,14.63
2022-09-23T08:18:45.243Z,14.63
2022-09-23T08:21:12.753Z,14.74
2022-09-23T08:23:39.852Z,14.90
2022-09-23T08:26:10.336Z,15.00
2022-09-23T08:28:43.535Z,15.18
2022-09-23T08:31:10.284Z,15.39
2022-09-23T08:33:37.245Z,15.48
2022-09-23T08:36:04.482Z,15.39
2022-09-23T08:38:31.776Z,15.72
2022-09-23T08:41:23.028Z,15.99
2022-09-23T08:43:54.198Z,16.02
2022-09-23T08:46:40.507Z,16.06
2022-09-23T08:49:12.370Z,15.46
2022-09-23T08:51:46.916Z,15.63
2022-09-23T08:54:17.766Z,15.76
2022-09-23T08:56:48.948Z,16.03
2022-09-23T08:59:36.745Z,16.33
2022-09-23T09:02:16.129Z,16.28
2022-09-23T09:04:45.697Z,16.74
2022-09-23T09:07:38.923Z,16.83
2022-09-23T09:10:25.490Z,17.05
2022-09-23T09:13:20.672Z,17.32
2022-09-23T09:16:11.500Z,17.44
2022-09-23T09:18:49.786Z,17.53
2022-09-23T09:21:16.974Z,17.94
2022-09-23T09:23:50.167Z,18.23
2022-09-23T09:26:22.655Z,17.48
2022-09-23T09:29:02.562Z,17.73
2022-09-23T09:31:49.114Z,18.34
2022-09-23T09:34:44.059Z,18.38
2022-09-23T09:37:19.451Z,18.81
2022-09-23T09:39:46.210Z,18.60
2022-09-23T09:42:21.048Z,18.53
2022-09-23T09:45:01.818Z,18.77
2022-09-23T09:47:47.948Z,18.76
2022-09-23T09:50:21.677Z,19.10
2022-09-23T09:52:51.266Z,19.40
2022-09-23T09:55:35.578Z,19.56
2022-09-23T09:58:05.207Z,19.65
2022-09-23T10:00:40.895Z,19.44
2022-09-23T10:03:13.798Z,19.85
2022-09-23T10:05:46.835Z,19.44
2022-09-23T10:08:23.102Z,19.63
2022-09-23T10:10:59.632Z,19.55
2022-09-23T10:13:29.412Z,19.53
2022-09-23T10:16:03.921Z,19.30
2022-09-23T10:18:47.327Z,19.41
2022-09-23T10:21:17.202Z,19.81
2022-09-23T10:23:46.596Z,19.05
2022-09-23T10:26:17.368Z,18.32
2022-09-23T10:28:50.518Z,18.68
2022-09-23T10:31:27.863Z,19.23
2022-09-23T10:33:59.676Z,19.79
2022-09-23T10:36:31.560Z,20.20
2022-09-23T10:39:23.069Z,20.66
2022-09-23T10:42:37.721Z,21.00
2022-09-23T10:45:52.207Z,21.31
2022-09-23T10:48:21.868Z,21.69
2022-09-23T10:50:51.710Z,22.01
2022-09-23T10:53:42.459Z,21.86
2022-09-23T10:56:34.520Z,21.25
2022-09-23T10:59:14.191Z,20.07
2022-09-23T11:01:49.710Z,19.99
2022-09-23T11:04:24.136Z,19.70
2022-09-23T11:07:20.719Z,19.88
2022-09-23T11:09:58.683Z,20.18
2022-09-23T11:12:42.637Z,20.18
2022-09-23T11:15:19.128Z,18.98
2022-09-23T11:18:17.081Z,19.14
2022-09-23T11:21:08.307Z,18.23
2022-09-23T11:24:17.774Z,18.14
2022-09-23T11:26:47.117Z,18.04
2022-09-23T11:29:53.794Z,17.88
2022-09-23T11:32:29.392Z,18.01
2022-09-23T11:35:19.502Z,17.96
2022-09-23T11:37:51.521Z,17.82
2022-09-23T11:40:25.253Z,17.83
2022-09-23T11:43:09.970Z,18.56
2022-09-23T11:45:42.507Z,19.38
2022-09-23T11:48:18.145Z,20.98
2022-09-23T11:50:54.040Z,21.93
2022-09-23T11:54:01.905Z,23.00
2022-09-23T11:56:36.770Z,22.76
2022-09-23T11:59:38.452Z,21.63
2022-09-23T12:02:20.379Z,19.73
2022-09-23T12:04:58.496Z,18.72
2022-09-23T12:07:46.711Z,18.64
2022-09-23T12:10:15.695Z,18.19
2022-09-23T12:13:04.898Z,17.38
2022-09-23T12:15:50.559Z,17.78
2022-09-23T12:18:56.350Z,18.76
2022-09-23T12:21:51.702Z,18.45
2022-09-23T12:24:43.187Z,17.88
2022-09-23T12:27:22.999Z,17.11
2022-09-23T12:29:56.666Z,17.09
2022-09-23T12:32:24.751Z,17.09
2022-09-23T12:34:53.468Z,17.33
2022-09-23T12:37:34.197Z,17.47
2022-09-23T12:40:22.780Z,17.25
2022-09-23T12:42:50.675Z,17.18
2022-09-23T12:45:28.148Z,17.09
2022-09-23T12:47:54.927Z,17.20
2022-09-23T12:50:51.061Z,17.45
2022-09-23T12:54:02.047Z,17.76
2022-09-23T12:56:37.989Z,17.94
2022-09-23T12:59:33.904Z,18.18
2022-09-23T13:02:26.899Z,19.37
2022-09-23T13:05:17.693Z,22.17
2022-09-23T13:07:48.737Z,24.71
2022-09-23T13:10:32.836Z,25.46
2022-09-23T13:13:02.329Z,25.04
2022-09-23T13:15:34.030Z,26.16
2022-09-23T13:18:19.082Z,25.66
2022-09-23T13:20:50.647Z,24.88
2022-09-23T13:23:22.340Z,24.19
2022-09-23T13:25:51.553Z,23.60
2022-09-23T13:28:27.273Z,22.78
2022-09-23T13:30:54.389Z,20.61
2022-09-23T13:33:29.728Z,19.54
2022-09-23T13:36:02.361Z,18.85
2022-09-23T13:38:31.994Z,18.30
2022-09-23T13:41:07.606Z,18.18
2022-09-23T13:43:41.570Z,17.97
2022-09-23T13:46:20.234Z,17.78
2022-09-23T13:48:51.091Z,17.54
2022-09-23T13:51:38.012Z,17.31
2022-09-23T13:54:30.988Z,16.98
2022-09-23T13:56:58.378Z,17.24
2022-09-23T13:59:36.316Z,17.58
2022-09-23T14:02:15.256Z,17.56
2022-09-23T14:04:43.212Z,17.77
2022-09-23T14:07:14.454Z,17.93
2022-09-23T14:09:44.274Z,17.98
2022-09-23T14:12:11.829Z,17.96
2022-09-23T14:14:42.563Z,17.89
2022-09-23T14:17:16.808Z,18.00
2022-09-23T14:19:44.021Z,17.87
2022-09-23T14:22:28.162Z,17.76
2022-09-23T14:24:56.567Z,17.61
2022-09-23T14:27:33.924Z,17.54
2022-09-23T14:30:02.864Z,17.55
2022-09-23T14:32:30.875Z,17.62
2022-09-23T14:35:00.841Z,17.66
2022-09-23T14:37:51.370Z,17.64
2022-09-23T14:40:22.804Z,17.71
2022-09-23T14:42:57.210Z,17.71
2022-09-23T14:45:28.979Z,19.36
2022-09-23T14:48:12.783Z,22.38
2022-09-23T14:50:48.554Z,23.69
2022-09-23T14:53:24.186Z,21.96
2022-09-23T14:56:07.218Z,20.73
2022-09-23T14:58:54.222Z,19.71
2022-09-23T15:01:33.324Z,19.25
2022-09-23T15:04:23.375Z,19.26
2022-09-23T15:07:00.984Z,20.36
2022-09-23T15:09:33.435Z,20.41
2022-09-23T15:12:21.884Z,21.84
2022-09-23T15:14:52.633Z,22.40
2022-09-23T15:17:35.678Z,20.38
2022-09-23T15:20:06.907Z,19.48
2022-09-23T15:22:43.554Z,19.16
2022-09-23T15:25:31.991Z,18.72
2022-09-23T15:28:10.576Z,18.33
2022-09-23T15:30:39.082Z,18.30
2022-09-23T15:33:06.462Z,20.11
2022-09-23T15:35:33.409Z,19.14
2022-09-23T15:38:02.179Z,19.03
2022-09-23T15:40:35.035Z,18.62
2022-09-23T15:43:21.213Z,18.08
2022-09-23T15:45:56.360Z,17.91
2022-09-23T15:48:27.952Z,17.66
2022-09-23T15:50:54.775Z,17.50
2022-09-23T15:53:24.289Z,17.33
2022-09-23T15:55:51.622Z,17.55
2022-09-23T15:58:20.111Z,18.48
2022-09-23T16:00:55.673Z,17.94
2022-09-23T16:03:28.993Z,17.48
2022-09-23T16:06:00.102Z,17.20
2022-09-23T16:08:28.339Z,17.00
2022-09-23T16:10:55.709Z,16.90
2022-09-23T16:13:23.033Z,16.76
2022-09-23T16:15:50.075Z,16.71
2022-09-23T16:18:17.013Z,16.59
2022-09-23T16:20:45.664Z,16.50
2022-09-23T16:23:43.519Z,16.41
2022-09-23T16:26:19.828Z,16.22
2022-09-23T16:28:48.522Z,16.15
2022-09-23T16:31:16.573Z,16.00
2022-09-23T16:33:47.887Z,15.84
2022-09-23T16:36:23.819Z,15.71
2022-09-23T16:38:50.901Z,15.69
2022-09-23T16:41:17.901Z,15.71
2022-09-23T16:43:44.662Z,15.78
2022-09-23T16:46:14.137Z,15.57
2022-09-23T16:48:42.141Z,15.46
2022-09-23T16:51:14.758Z,15.40
2022-09-23T16:53:42.750Z,15.47
2022-09-23T16:56:11.450Z,15.56
2022-09-23T16:58:39.294Z,15.42
2022-09-23T17:01:26.623Z,15.34
2022-09-23T17:03:53.408Z,15.26
2022-09-23T17:06:20.440Z,15.19
2022-09-23T17:08:51.072Z,15.07
2022-09-23T17:11:17.811Z,14.99
2022-09-23T17:13:45.068Z,14.90
2022-09-23T17:16:23.144Z,14.86
2022-09-23T17:18:50.154Z,14.71
2022-09-23T17:21:17.119Z,14.59
2022-09-23T17:23:43.899Z,14.52
2022-09-23T17:26:12.479Z,14.42
2022-09-23T17:28:39.480Z,14.35
2022-09-23T17:31:07.496Z,14.11
2022-09-23T17:33:38.806Z,14.09
2022-09-23T17:36:11.104Z,13.93
2022-09-23T17:38:41.565Z,13.77
2022-09-23T17:41:15.639Z,13.82
2022-09-23T17:43:48.335Z,13.73
2022-09-23T17:46:18.903Z,13.66
2022-09-23T17:48:54.108Z,13.44
2022-09-23T17:51:24.363Z,13.44
2022-09-23T17:53:51.676Z,13.28
2022-09-23T17:56:20.289Z,13.25
2022-09-23T17:58:48.691Z,13.13
2022-09-23T18:01:24.010Z,13.03
2022-09-23T18:03:59.261Z,12.93
2022-09-23T18:06:29.047Z,12.79
2022-09-23T18:08:58.600Z,12.72
2022-09-23T18:11:27.436Z,12.78
2022-09-23T18:13:54.728Z,12.58
2022-09-23T18:16:23.950Z,12.57
2022-09-23T18:18:52.376Z,12.43
2022-09-23T18:21:20.727Z,12.52
2022-09-23T18:23:47.901Z,12.42
2022-09-23T18:26:23.068Z,12.34
2022-09-23T18:28:52.777Z,12.20
2022-09-23T18:31:20.422Z,12.18
2022-09-23T18:33:52.023Z,12.11
2022-09-23T18:36:19.868Z,12.10
2022-09-23T18:38:47.772Z,12.12
2022-09-23T18:41:15.258Z,11.97
2022-09-23T18:43:47.616Z,11.86
2022-09-23T18:46:20.929Z,11.91
2022-09-23T18:49:06.746Z,11.94
2022-09-23T18:51:36.870Z,11.73
2022-09-23T18:54:06.668Z,11.77
2022-09-23T18:56:41.688Z,11.62
2022-09-23T18:59:20.550Z,11.62
2022-09-23T19:01:55.334Z,11.60
2022-09-23T19:04:24.831Z,11.50
2022-09-23T19:06:51.756Z,11.39
2022-09-23T19:09:19.027Z,11.21
2022-09-23T19:11:46.479Z,11.24
2022-09-23T19:14:13.709Z,11.26
2022-09-23T19:16:40.987Z,11.12
2022-09-23T19:19:08.401Z,11.07
2022-09-23T19:21:36.062Z,11.10
2022-09-23T19:24:06.101Z,11.04
2022-09-23T19:26:37.512Z,10.97
2022-09-23T19:29:06.020Z,11.10
2022-09-23T19:31:35.784Z,11.00
2022-09-23T19:34:10.688Z,11.00
2022-09-23T19:36:39.983Z,10.93
2022-09-23T19:39:12.232Z,10.88
2022-09-23T19:41:38.952Z,10.80
2022-09-23T19:44:07.315Z,10.71
2022-09-23T19:46:39.421Z,10.69
2022-09-23T19:49:07.497Z,10.62
2022-09-23T19:51:35.105Z,10.57
2022-09-23T19:54:03.374Z,10.51
2022-09-23T19:56:31.984Z,10.53
2022-09-23T19:59:00.216Z,10.48
2022-09-23T20:01:29.387Z,10.36
2022-09-23T20:03:56.401Z,10.37
2022-09-23T20:06:23.444Z,10.28
2022-09-23T20:08:50.419Z,10.21
2022-09-23T20:11:26.234Z,10.19
2022-09-23T20:14:02.224Z,10.19
2022-09-23T20:16:34.356Z,10.25
2022-09-23T20:19:02.863Z,10.03
2022-09-23T20:21:30.164Z,9.97
2022-09-23T20:23:57.853Z,9.92
2022-09-23T20:26:43.351Z,9.85
2022-09-23T20:29:11.156Z,9.85
2022-09-23T20:31:41.092Z,9.93
2022-09-23T20:34:10.303Z,9.92
2022-09-23T20:36:37.846Z,9.92
2022-09-23T20:39:09.113Z,9.92
2022-09-23T20:41:37.722Z,9.86
2022-09-23T20:44:15.220Z,9.79
2022-09-23T20:46:48.567Z,9.75
2022-09-23T20:49:17.190Z,9.65
2022-09-23T20:51:44.524Z,9.51
2022-09-23T20:54:12.265Z,9.55
2022-09-23T20:56:39.521Z,9.56
2022-09-23T20:59:06.449Z,9.56
2022-09-23T21:01:35.212Z,9.52
2022-09-23T21:04:04.937Z,9.55
2022-09-23T21:06:33.580Z,9.44
2022-09-23T21:09:00.867Z,9.33
2022-09-23T21:11:29.097Z,9.32
2022-09-23T21:13:56.543Z,9.38
2022-09-23T21:16:25.831Z,9.36
2022-09-23T21:18:53.079Z,9.28
2022-09-23T21:21:22.353Z,9.24
2022-09-23T21:23:50.605Z,9.20
2022-09-23T21:26:25.207Z,9.24
2022-09-23T21:28:58.126Z,9.23
2022-09-23T21:31:25.895Z,9.15
2022-09-23T21:34:13.426Z,9.09
2022-09-23T21:36:46.171Z,9.04
2022-09-23T21:39:12.976Z,9.02
2022-09-23T21:41:40.138Z,9.01
2022-09-23T21:44:07.949Z,8.86
2022-09-23T21:46:35.722Z,8.83
2022-09-23T21:49:03.741Z,8.79
2022-09-23T21:51:40.614Z,8.89
2022-09-23T21:54:15.653Z,8.82
2022-09-23T21:56:43.863Z,8.82
2022-09-23T21:59:10.811Z,8.79
2022-09-23T22:01:41.460Z,8.72
2022-09-23T22:04:15.396Z,8.64
2022-09-23T22:06:42.756Z,8.69
2022-09-23T22:09:13.468Z,8.58
2022-09-23T22:11:59.919Z,8.46
2022-09-23T22:14:27.306Z,8.47
2022-09-23T22:16:59.290Z,8.48
2022-09-23T22:19:28.582Z,8.59
2022-09-23T22:21:56.197Z,8.46
2022-09-23T22:24:23.309Z,8.43
2022-09-23T22:26:50.281Z,8.34
2022-09-23T22:29:35.964Z,8.37
2022-09-23T22:32:23.319Z,8.32
2022-09-23T22:34:51.906Z,8.19
2022-09-23T22:37:30.528Z,8.16
2022-09-23T22:39:57.541Z,8.22
2022-09-23T22:42:24.397Z,8.27
2022-09-23T22:44:51.729Z,8.26
2022-09-23T22:47:19.694Z,8.20
2022-09-23T22:49:47.088Z,8.15
2022-09-23T22:52:16.118Z,8.17
2022-09-23T22:54:43.367Z,8.16
2022-09-23T22:57:10.477Z,8.13
2022-09-23T22:59:37.680Z,8.07
2022-09-23T23:02:07.130Z,8.07
2022-09-23T23:04:33.993Z,8.05
2022-09-23T23:07:00.708Z,7.87
2022-09-23T23:09:27.708Z,7.85
2022-09-23T23:11:54.465Z,7.93
2022-09-23T23:14:21.415Z,7.80
2022-09-23T23:16:48.381Z,7.78
2022-09-23T23:19:17.337Z,7.83
2022-09-23T23:21:45.529Z,7.76
2022-09-23T23:24:21.551Z,7.80
2022-09-23T23:26:49.380Z,7.79
2022-09-23T23:29:17.852Z,7.62
2022-09-23T23:31:45.478Z,7.64
2022-09-23T23:34:14.809Z,7.70
2022-09-23T23:36:42.261Z,7.61
2022-09-23T23:39:09.889Z,7.58
2022-09-23T23:41:37.902Z,7.55
2022-09-23T23:44:05.697Z,7.53
2022-09-23T23:46:32.659Z,7.55
2022-09-23T23:49:00.447Z,7.51
2022-09-23T23:51:28.125Z,7.56
2022-09-23T23:53:55.944Z,7.33
2022-09-23T23:56:24.636Z,7.39
2022-09-23T23:58:56.402Z,7.40
